createdAt,value
2019-05-07T04:02:03.270Z,101484.76
2019-05-07T04:05:34.305Z,101469.64
2019-05-07T04:09:04.462Z,101477.32
2019-05-07T04:12:35.485Z,101467.67
2019-05-07T04:16:06.409Z,101474.1
2019-05-07T04:19:36.373Z,101469.83
2019-05-07T04:23:06.352Z,101472.6
2019-05-07T04:26:36.290Z,101482.64
2019-05-07T04:30:06.324Z,101486.89
2019-05-07T04:33:36.269Z,101482.82
2019-05-07T04:37:06.212Z,101489.57
2019-05-07T04:40:36.149Z,101489.95
2019-05-07T04:44:06.093Z,101487.63
2019-05-07T04:47:43.848Z,101489.52
2019-05-07T04:51:12.606Z,101492.34
2019-05-07T04:54:43.640Z,101493.23
2019-05-07T04:58:13.637Z,101504.21
2019-05-07T05:01:43.888Z,101495
2019-05-07T05:05:14.830Z,101492.73
2019-05-07T05:08:45.813Z,101500.12
2019-05-07T05:12:15.742Z,101504.78
2019-05-07T05:15:45.691Z,101511.34
2019-05-07T05:19:15.660Z,101520.57
2019-05-07T05:22:45.617Z,101514.06
2019-05-07T05:26:15.596Z,101508.35
2019-05-07T05:29:45.549Z,101513.6
2019-05-07T05:33:15.484Z,101520.28
2019-05-07T05:36:45.602Z,101545.09
2019-05-07T05:40:15.550Z,101550.13
2019-05-07T05:43:45.540Z,101535.67
2019-05-07T05:47:15.487Z,101523.06
2019-05-07T05:50:45.435Z,101528.89
2019-05-07T05:54:14.407Z,101523.13
2019-05-07T05:57:44.343Z,101519.84
2019-05-07T06:01:15.285Z,101532.91
2019-05-07T06:04:45.248Z,101529.15
2019-05-07T06:08:18.278Z,101523.49
2019-05-07T06:11:47.152Z,101529.07
2019-05-07T06:15:17.100Z,101530.41
2019-05-07T06:18:47.044Z,101530.98
2019-05-07T06:22:17.974Z,101534.17
2019-05-07T06:25:48.023Z,101539.07
2019-05-07T06:29:20.104Z,101535.43
2019-05-07T06:32:52.321Z,101536.73
2019-05-07T06:36:22.808Z,101534.03
2019-05-07T06:39:53.743Z,101530.32
2019-05-07T06:43:24.667Z,101539.82
2019-05-07T06:46:54.628Z,101537.15
2019-05-07T06:50:23.575Z,101537.66
2019-05-07T06:53:53.519Z,101536.06
2019-05-07T06:57:24.462Z,101544.81
2019-05-07T07:00:54.477Z,101552.98
2019-05-07T07:04:24.451Z,101566.62
2019-05-07T07:07:53.374Z,101585.92
2019-05-07T07:11:24.338Z,101595.07
2019-05-07T07:14:54.308Z,101559.39
2019-05-07T07:18:25.290Z,101559.14
2019-05-07T07:21:55.239Z,101558.61
2019-05-07T07:25:25.748Z,101552.06
2019-05-07T07:28:55.679Z,101554.85
2019-05-07T07:32:25.623Z,101563.27
2019-05-07T07:35:55.564Z,101548.01
2019-05-07T07:39:25.536Z,101553.89
2019-05-07T07:42:55.485Z,101554.56
2019-05-07T07:46:24.433Z,101549
2019-05-07T07:49:54.364Z,101551
2019-05-07T07:53:24.398Z,101552.37
2019-05-07T07:56:56.826Z,101556.57
2019-05-07T08:00:30.037Z,101557.78
2019-05-07T08:03:58.236Z,101557.65
2019-05-07T08:07:28.192Z,101563.14
2019-05-07T08:10:58.154Z,101561.85
2019-05-07T08:14:28.084Z,101568.7
2019-05-07T08:17:58.031Z,101565.15
2019-05-07T08:21:27.997Z,101554.19
2019-05-07T08:24:57.978Z,101563.18
2019-05-07T08:28:31.680Z,101559.23
2019-05-07T08:32:02.311Z,101570.57
2019-05-07T08:35:32.700Z,101575.58
2019-05-07T08:39:03.378Z,101587.71
2019-05-07T08:42:32.412Z,101612.98
2019-05-07T08:46:03.386Z,101588.75
2019-05-07T08:49:39.478Z,101583.14
2019-05-07T08:53:07.233Z,101580.84
2019-05-07T08:56:37.187Z,101577.07
2019-05-07T09:00:06.195Z,101581.73
2019-05-07T09:03:36.125Z,101580.87
2019-05-07T09:07:06.076Z,101583.51
2019-05-07T09:10:36.025Z,101577.29
2019-05-07T09:14:05.969Z,101574.71
2019-05-07T09:17:35.908Z,101575.45
2019-05-07T09:21:06.869Z,101579.67
2019-05-07T09:24:36.816Z,101573.08
2019-05-07T09:28:06.749Z,101581.09
2019-05-07T09:31:36.704Z,101591.92
2019-05-07T09:35:06.733Z,101587.75
2019-05-07T09:38:34.677Z,101574.07
2019-05-07T09:42:04.643Z,101584.79
2019-05-07T09:45:34.593Z,101590.07
2019-05-07T09:49:04.549Z,101593.7
2019-05-07T09:52:34.589Z,101621.45
2019-05-07T09:56:03.537Z,101599.92
2019-05-07T09:59:34.487Z,101606.23
2019-05-07T10:03:04.434Z,101598.25
2019-05-07T10:06:34.402Z,101628.09
2019-05-07T10:10:05.333Z,101618.93
2019-05-07T10:13:35.277Z,101624.31
2019-05-07T10:17:05.244Z,101627.08
2019-05-07T10:20:35.209Z,101635.89
2019-05-07T10:24:05.163Z,101609.2
2019-05-07T10:27:35.191Z,101606.99
2019-05-07T10:31:05.143Z,101592.53
2019-05-07T10:34:33.096Z,101619.62
2019-05-07T10:38:04.057Z,101595.92
2019-05-07T10:41:34.027Z,101599.43
2019-05-07T10:45:04.962Z,101591.71
2019-05-07T10:48:34.922Z,101593.56
2019-05-07T10:52:03.880Z,101604.59
2019-05-07T10:55:34.819Z,101595.81
2019-05-07T10:59:04.780Z,101607.12
2019-05-07T11:02:34.841Z,101601.23
2019-05-07T11:06:04.889Z,101603.26
2019-05-07T11:09:34.828Z,101602.17
2019-05-07T11:13:04.794Z,101611.64
2019-05-07T11:16:34.776Z,101596.85
2019-05-07T11:20:04.814Z,101613.45
2019-05-07T11:23:34.831Z,101613.2
2019-05-07T11:27:04.808Z,101618.87
2019-05-07T11:30:33.775Z,101600.56
2019-05-07T11:34:04.731Z,101622.25
2019-05-07T11:37:34.791Z,101604.25
2019-05-07T11:41:04.749Z,101614.17
2019-05-07T11:44:34.705Z,101623.48
2019-05-07T11:48:04.675Z,101627.48
2019-05-07T11:51:35.628Z,101614.98
2019-05-07T11:55:05.619Z,101626.12
2019-05-07T11:58:35.592Z,101617.25
2019-05-07T12:02:05.584Z,101622
2019-05-07T12:05:35.545Z,101622.22
2019-05-07T12:09:05.539Z,101619.4
2019-05-07T12:12:35.525Z,101615.6
2019-05-07T12:16:05.508Z,101610.64
2019-05-07T12:19:35.480Z,101598.91
2019-05-07T12:23:05.461Z,101596.64
2019-05-07T12:26:33.437Z,101616.53
2019-05-07T12:30:03.392Z,101604.59
2019-05-07T12:33:34.348Z,101605.4
2019-05-07T12:37:06.316Z,101603
2019-05-07T12:40:36.289Z,101609.7
2019-05-07T12:44:05.280Z,101596.46
2019-05-07T12:47:35.275Z,101632.14
2019-05-07T12:51:05.264Z,101629.73
2019-05-07T12:54:37.208Z,101608.76
2019-05-07T12:58:07.175Z,101613.4
2019-05-07T13:01:37.150Z,101624.76
2019-05-07T13:05:07.722Z,101612.12
2019-05-07T13:08:38.503Z,101598.71
2019-05-07T13:12:09.632Z,101596.09
2019-05-07T13:15:39.598Z,101585.07
2019-05-07T13:19:10.702Z,101584.35
2019-05-07T13:22:39.658Z,101580.48
2019-05-07T13:26:10.625Z,101581.15
2019-05-07T13:29:42.448Z,101597.92
2019-05-07T13:33:13.539Z,101598.79
2019-05-07T13:36:43.644Z,101578.58
2019-05-07T13:40:12.595Z,101587.59
2019-05-07T13:43:44.567Z,101594.37
2019-05-07T13:47:14.601Z,101577.5
2019-05-07T13:50:44.551Z,101567.67
2019-05-07T13:54:14.628Z,101574.99
2019-05-07T13:57:44.579Z,101560.85
2019-05-07T14:01:14.535Z,101567.56
2019-05-07T14:04:44.557Z,101567.2
2019-05-07T14:08:15.563Z,101559.12
2019-05-07T14:11:45.554Z,101572.7
2019-05-07T14:15:15.516Z,101556.21
2019-05-07T14:18:44.499Z,101550.85
2019-05-07T14:22:18.933Z,101561.88
2019-05-07T14:25:48.551Z,101548.75
2019-05-07T14:29:18.469Z,101556.32
2019-05-07T14:32:48.405Z,101556.48
2019-05-07T14:36:17.358Z,101558.96
2019-05-07T14:39:47.307Z,101550.78
2019-05-07T14:43:17.277Z,101555.65
2019-05-07T14:46:51.404Z,101552.59
2019-05-07T14:50:22.552Z,101567.4
2019-05-07T14:53:52.178Z,101564.15
2019-05-07T14:57:23.151Z,101575.09
2019-05-07T15:00:53.221Z,101568.03
2019-05-07T15:04:24.162Z,101555.51
2019-05-07T15:08:06.606Z,101554.09
2019-05-07T15:11:27.004Z,101544.72
2019-05-07T15:14:55.960Z,101546.46
2019-05-07T15:18:26.001Z,101539.07
2019-05-07T15:21:56.102Z,101542.82
2019-05-07T15:25:26.047Z,101538.9
2019-05-07T15:28:55.996Z,101544.4
2019-05-07T15:32:23.957Z,101547.04
2019-05-07T15:35:54.060Z,101547.03
2019-05-07T15:39:24.014Z,101538.84
2019-05-07T15:42:53.971Z,101538.21
2019-05-07T15:46:24.893Z,101534.07
2019-05-07T15:49:54.939Z,101529.73
2019-05-07T15:53:25.142Z,101536.56
2019-05-07T15:56:55.139Z,101529.79
2019-05-07T16:00:25.088Z,101531.28
2019-05-07T16:03:56.091Z,101532.4
2019-05-07T16:07:26.055Z,101532.73
2019-05-07T16:10:55.174Z,101531
2019-05-07T16:14:27.240Z,101525.09
2019-05-07T16:17:57.085Z,101523.09
2019-05-07T16:21:27.042Z,101515.92
2019-05-07T16:24:56.994Z,101520.04
2019-05-07T16:28:26.113Z,101520.64
2019-05-07T16:31:56.112Z,101525.42
2019-05-07T16:35:26.701Z,101513.26
2019-05-07T16:38:56.681Z,101507.91
2019-05-07T16:42:26.617Z,101513.25
2019-05-07T16:45:56.672Z,101518.04
2019-05-07T16:49:27.615Z,101513.1
2019-05-07T16:52:57.565Z,101511.09
2019-05-07T16:56:27.533Z,101508.5
2019-05-07T16:59:57.495Z,101512.78
2019-05-07T17:05:13.251Z,101516.84
2019-05-07T17:08:44.170Z,101513.88
2019-05-07T17:12:14.153Z,101517.19
2019-05-07T17:15:44.109Z,101515.77
2019-05-07T17:19:14.176Z,101510.59
2019-05-07T17:22:44.167Z,101518.27
2019-05-07T17:26:14.163Z,101516.4
2019-05-07T17:29:45.136Z,101517.06
2019-05-07T17:33:15.144Z,101509.57
2019-05-07T17:36:45.139Z,101518.76
2019-05-07T17:40:15.104Z,101511.95
2019-05-07T17:43:43.087Z,101511.78
2019-05-07T17:47:14.087Z,101505.1
2019-05-07T17:50:44.056Z,101509.21
2019-05-07T17:54:15.082Z,101509.86
2019-05-07T18:31:05.779Z,101511
2019-05-07T18:34:33.758Z,101517.35
2019-05-07T18:38:03.992Z,101512.17
2019-05-07T21:06:15.847Z,101505.6
2019-05-07T21:09:43.778Z,101501.04
2019-05-07T21:13:27.243Z,101502.25
2019-05-07T21:16:48.768Z,101504.65
2019-05-07T21:20:19.691Z,101505.65
2019-05-07T21:23:52.660Z,101503.23
2019-05-07T21:27:19.579Z,101504.06
2019-05-07T21:30:51.838Z,101492.46
2019-05-07T21:34:22.740Z,101496.24
2019-05-07T21:37:52.511Z,101496.62
2019-05-07T21:41:24.405Z,101490.56
2019-05-07T21:44:54.381Z,101489.45
2019-05-07T21:48:25.486Z,101487.87
2019-05-07T21:51:56.450Z,101485.24
2019-05-07T21:55:26.373Z,101485.6
2019-05-07T21:58:56.310Z,101485.03
